sensor_id;sensor_type;location;lat;lon;timestamp;P1;durP1;ratioP1;P2;durP2;ratioP2
18917;SDS011;9591;52.742;13.650;2023-03-19T00:02:22;15.97;;;7.67;;
18917;SDS011;9591;52.742;13.650;2023-03-19T00:05:08;13.47;;;8.00;;
18917;SDS011;9591;52.742;13.650;2023-03-19T00:07:57;15.07;;;8.40;;
18917;SDS011;9591;52.742;13.650;2023-03-19T00:10:43;13.97;;;8.07;;
18917;SDS011;9591;52.742;13.650;2023-03-19T00:13:30;15.53;;;8.17;;
18917;SDS011;9591;52.742;13.650;2023-03-19T00:16:17;14.10;;;7.27;;
18917;SDS011;9591;52.742;13.650;2023-03-19T00:19:05;16.77;;;7.83;;
18917;SDS011;9591;52.742;13.650;2023-03-19T00:21:52;13.27;;;7.30;;
18917;SDS011;9591;52.742;13.650;2023-03-19T00:24:41;15.97;;;7.50;;
18917;SDS011;9591;52.742;13.650;2023-03-19T00:27:28;15.10;;;7.40;;
18917;SDS011;9591;52.742;13.650;2023-03-19T00:30:15;12.20;;;7.70;;
18917;SDS011;9591;52.742;13.650;2023-03-19T00:33:01;14.23;;;7.40;;
18917;SDS011;9591;52.742;13.650;2023-03-19T00:35:48;10.30;;;6.90;;
18917;SDS011;9591;52.742;13.650;2023-03-19T00:38:35;14.70;;;8.30;;
18917;SDS011;9591;52.742;13.650;2023-03-19T00:41:24;15.70;;;7.40;;
18917;SDS011;9591;52.742;13.650;2023-03-19T00:44:11;14.57;;;7.83;;
18917;SDS011;9591;52.742;13.650;2023-03-19T00:46:58;13.70;;;7.33;;
18917;SDS011;9591;52.742;13.650;2023-03-19T00:49:45;17.67;;;7.73;;
18917;SDS011;9591;52.742;13.650;2023-03-19T00:52:32;15.70;;;7.40;;
18917;SDS011;9591;52.742;13.650;2023-03-19T00:55:18;14.03;;;7.10;;
18917;SDS011;9591;52.742;13.650;2023-03-19T00:58:07;14.23;;;7.47;;
18917;SDS011;9591;52.742;13.650;2023-03-19T01:00:54;13.43;;;7.67;;
18917;SDS011;9591;52.742;13.650;2023-03-19T01:03:41;16.40;;;7.63;;
18917;SDS011;9591;52.742;13.650;2023-03-19T01:06:28;14.30;;;7.30;;
18917;SDS011;9591;52.742;13.650;2023-03-19T01:09:15;14.70;;;8.30;;
18917;SDS011;9591;52.742;13.650;2023-03-19T01:12:01;13.93;;;7.80;;
18917;SDS011;9591;52.742;13.650;2023-03-19T01:14:51;13.27;;;6.70;;
18917;SDS011;9591;52.742;13.650;2023-03-19T01:17:38;12.27;;;7.23;;
18917;SDS011;9591;52.742;13.650;2023-03-19T01:20:24;16.47;;;8.93;;
18917;SDS011;9591;52.742;13.650;2023-03-19T01:23:11;18.40;;;9.20;;
18917;SDS011;9591;52.742;13.650;2023-03-19T01:25:58;15.20;;;8.20;;
18917;SDS011;9591;52.742;13.650;2023-03-19T01:28:45;15.57;;;8.27;;
18917;SDS011;9591;52.742;13.650;2023-03-19T01:31:36;20.63;;;7.93;;
18917;SDS011;9591;52.742;13.650;2023-03-19T01:34:38;12.93;;;8.03;;
18917;SDS011;9591;52.742;13.650;2023-03-19T01:37:27;14.87;;;7.60;;
18917;SDS011;9591;52.742;13.650;2023-03-19T01:40:13;15.47;;;8.57;;
18917;SDS011;9591;52.742;13.650;2023-03-19T01:46:15;15.13;;;7.67;;
18917;SDS011;9591;52.742;13.650;2023-03-19T01:49:30;17.77;;;8.27;;
18917;SDS011;9591;52.742;13.650;2023-03-19T01:52:33;16.20;;;7.40;;
18917;SDS011;9591;52.742;13.650;2023-03-19T01:55:32;13.43;;;7.83;;
18917;SDS011;9591;52.742;13.650;2023-03-19T01:58:28;13.87;;;7.93;;
18917;SDS011;9591;52.742;13.650;2023-03-19T02:01:25;16.03;;;9.00;;
18917;SDS011;9591;52.742;13.650;2023-03-19T02:04:13;17.10;;;8.13;;
18917;SDS011;9591;52.742;13.650;2023-03-19T02:07:02;15.80;;;8.57;;
18917;SDS011;9591;52.742;13.650;2023-03-19T02:09:50;17.27;;;9.00;;
18917;SDS011;9591;52.742;13.650;2023-03-19T02:12:38;17.57;;;7.63;;
18917;SDS011;9591;52.742;13.650;2023-03-19T02:15:25;15.70;;;8.17;;
18917;SDS011;9591;52.742;13.650;2023-03-19T02:18:11;18.97;;;8.03;;
18917;SDS011;9591;52.742;13.650;2023-03-19T02:21:00;13.57;;;8.13;;
18917;SDS011;9591;52.742;13.650;2023-03-19T02:23:52;14.87;;;8.43;;
18917;SDS011;9591;52.742;13.650;2023-03-19T02:27:03;17.63;;;8.27;;
18917;SDS011;9591;52.742;13.650;2023-03-19T02:29:54;11.93;;;7.87;;
18917;SDS011;9591;52.742;13.650;2023-03-19T02:32:41;12.97;;;7.73;;
18917;SDS011;9591;52.742;13.650;2023-03-19T02:35:29;17.70;;;8.83;;
18917;SDS011;9591;52.742;13.650;2023-03-19T02:38:18;20.87;;;10.20;;
18917;SDS011;9591;52.742;13.650;2023-03-19T02:41:07;16.57;;;9.20;;
18917;SDS011;9591;52.742;13.650;2023-03-19T02:43:57;17.83;;;9.00;;
18917;SDS011;9591;52.742;13.650;2023-03-19T02:46:48;15.37;;;8.93;;
18917;SDS011;9591;52.742;13.650;2023-03-19T02:49:36;15.47;;;8.43;;
18917;SDS011;9591;52.742;13.650;2023-03-19T02:52:22;16.00;;;8.90;;
18917;SDS011;9591;52.742;13.650;2023-03-19T02:55:09;19.20;;;8.53;;
18917;SDS011;9591;52.742;13.650;2023-03-19T02:57:56;17.40;;;8.13;;
18917;SDS011;9591;52.742;13.650;2023-03-19T03:00:44;17.50;;;8.40;;
18917;SDS011;9591;52.742;13.650;2023-03-19T03:03:31;14.23;;;8.43;;
18917;SDS011;9591;52.742;13.650;2023-03-19T03:06:18;20.47;;;8.70;;
18917;SDS011;9591;52.742;13.650;2023-03-19T03:09:05;16.60;;;8.67;;
18917;SDS011;9591;52.742;13.650;2023-03-19T03:11:52;20.93;;;9.27;;
18917;SDS011;9591;52.742;13.650;2023-03-19T03:14:39;15.97;;;8.30;;
18917;SDS011;9591;52.742;13.650;2023-03-19T03:17:27;17.37;;;8.67;;
18917;SDS011;9591;52.742;13.650;2023-03-19T03:20:14;11.53;;;7.80;;
18917;SDS011;9591;52.742;13.650;2023-03-19T03:23:03;18.93;;;8.77;;
18917;SDS011;9591;52.742;13.650;2023-03-19T03:25:51;14.67;;;8.10;;
18917;SDS011;9591;52.742;13.650;2023-03-19T03:28:38;19.27;;;8.27;;
18917;SDS011;9591;52.742;13.650;2023-03-19T03:31:25;15.10;;;8.80;;
18917;SDS011;9591;52.742;13.650;2023-03-19T03:34:13;17.87;;;8.47;;
18917;SDS011;9591;52.742;13.650;2023-03-19T03:37:00;18.33;;;9.30;;
18917;SDS011;9591;52.742;13.650;2023-03-19T03:39:47;18.33;;;9.03;;
18917;SDS011;9591;52.742;13.650;2023-03-19T03:42:35;15.13;;;8.07;;
18917;SDS011;9591;52.742;13.650;2023-03-19T03:45:24;18.50;;;9.00;;
18917;SDS011;9591;52.742;13.650;2023-03-19T03:48:11;17.80;;;9.40;;
18917;SDS011;9591;52.742;13.650;2023-03-19T03:50:59;21.90;;;10.70;;
18917;SDS011;9591;52.742;13.650;2023-03-19T03:53:48;23.97;;;10.10;;
18917;SDS011;9591;52.742;13.650;2023-03-19T03:56:34;15.60;;;8.87;;
18917;SDS011;9591;52.742;13.650;2023-03-19T03:59:21;18.37;;;10.10;;
18917;SDS011;9591;52.742;13.650;2023-03-19T04:02:09;21.33;;;9.97;;
18917;SDS011;9591;52.742;13.650;2023-03-19T04:05:00;15.47;;;9.00;;
18917;SDS011;9591;52.742;13.650;2023-03-19T04:07:50;15.80;;;9.03;;
18917;SDS011;9591;52.742;13.650;2023-03-19T04:10:40;18.47;;;8.70;;
18917;SDS011;9591;52.742;13.650;2023-03-19T04:13:27;19.57;;;9.47;;
18917;SDS011;9591;52.742;13.650;2023-03-19T04:16:15;18.13;;;8.20;;
18917;SDS011;9591;52.742;13.650;2023-03-19T04:19:02;20.67;;;9.93;;
18917;SDS011;9591;52.742;13.650;2023-03-19T04:21:49;22.50;;;10.10;;
18917;SDS011;9591;52.742;13.650;2023-03-19T04:24:37;19.97;;;9.77;;
18917;SDS011;9591;52.742;13.650;2023-03-19T04:27:25;18.50;;;9.30;;
18917;SDS011;9591;52.742;13.650;2023-03-19T04:30:12;17.30;;;9.67;;
18917;SDS011;9591;52.742;13.650;2023-03-19T04:32:59;18.43;;;9.90;;
18917;SDS011;9591;52.742;13.650;2023-03-19T04:35:47;17.63;;;9.40;;
18917;SDS011;9591;52.742;13.650;2023-03-19T04:38:34;18.60;;;10.17;;
18917;SDS011;9591;52.742;13.650;2023-03-19T04:41:23;16.00;;;9.27;;
18917;SDS011;9591;52.742;13.650;2023-03-19T04:44:27;19.40;;;9.07;;
18917;SDS011;9591;52.742;13.650;2023-03-19T04:47:18;23.00;;;10.67;;
18917;SDS011;9591;52.742;13.650;2023-03-19T04:50:12;18.90;;;9.47;;
18917;SDS011;9591;52.742;13.650;2023-03-19T04:53:00;19.60;;;9.37;;
18917;SDS011;9591;52.742;13.650;2023-03-19T04:55:47;19.03;;;9.77;;
18917;SDS011;9591;52.742;13.650;2023-03-19T04:58:37;22.30;;;9.93;;
18917;SDS011;9591;52.742;13.650;2023-03-19T05:01:25;18.03;;;9.80;;
18917;SDS011;9591;52.742;13.650;2023-03-19T05:04:22;20.30;;;9.17;;
18917;SDS011;9591;52.742;13.650;2023-03-19T05:07:12;20.43;;;9.93;;
18917;SDS011;9591;52.742;13.650;2023-03-19T05:10:00;26.90;;;10.73;;
18917;SDS011;9591;52.742;13.650;2023-03-19T05:12:48;17.73;;;9.70;;
18917;SDS011;9591;52.742;13.650;2023-03-19T05:15:36;18.87;;;10.10;;
18917;SDS011;9591;52.742;13.650;2023-03-19T05:18:24;17.97;;;9.03;;
18917;SDS011;9591;52.742;13.650;2023-03-19T05:21:11;19.43;;;10.60;;
18917;SDS011;9591;52.742;13.650;2023-03-19T05:24:01;21.20;;;10.30;;
18917;SDS011;9591;52.742;13.650;2023-03-19T05:26:52;18.90;;;9.57;;
18917;SDS011;9591;52.742;13.650;2023-03-19T05:30:17;17.10;;;9.27;;
18917;SDS011;9591;52.742;13.650;2023-03-19T05:33:05;16.43;;;9.40;;
18917;SDS011;9591;52.742;13.650;2023-03-19T05:35:57;17.07;;;9.43;;
18917;SDS011;9591;52.742;13.650;2023-03-19T05:38:58;19.00;;;9.03;;
18917;SDS011;9591;52.742;13.650;2023-03-19T05:41:51;24.70;;;10.10;;
18917;SDS011;9591;52.742;13.650;2023-03-19T05:44:44;14.63;;;8.23;;
18917;SDS011;9591;52.742;13.650;2023-03-19T05:47:34;19.80;;;8.93;;
18917;SDS011;9591;52.742;13.650;2023-03-19T05:50:22;17.40;;;8.67;;
18917;SDS011;9591;52.742;13.650;2023-03-19T05:53:28;18.47;;;9.03;;
18917;SDS011;9591;52.742;13.650;2023-03-19T05:56:34;17.73;;;9.73;;
18917;SDS011;9591;52.742;13.650;2023-03-19T05:59:40;27.60;;;10.20;;
18917;SDS011;9591;52.742;13.650;2023-03-19T06:02:55;18.60;;;10.10;;
18917;SDS011;9591;52.742;13.650;2023-03-19T06:05:48;20.63;;;10.80;;
18917;SDS011;9591;52.742;13.650;2023-03-19T06:08:47;21.53;;;10.50;;
18917;SDS011;9591;52.742;13.650;2023-03-19T06:11:51;21.83;;;10.23;;
18917;SDS011;9591;52.742;13.650;2023-03-19T06:14:58;20.23;;;10.67;;
18917;SDS011;9591;52.742;13.650;2023-03-19T06:18:21;20.87;;;10.87;;
18917;SDS011;9591;52.742;13.650;2023-03-19T06:21:09;19.40;;;10.57;;
18917;SDS011;9591;52.742;13.650;2023-03-19T06:23:56;17.73;;;9.80;;
18917;SDS011;9591;52.742;13.650;2023-03-19T06:26:48;19.17;;;11.17;;
18917;SDS011;9591;52.742;13.650;2023-03-19T06:29:36;29.67;;;13.27;;
18917;SDS011;9591;52.742;13.650;2023-03-19T06:32:35;27.90;;;11.93;;
18917;SDS011;9591;52.742;13.650;2023-03-19T06:35:27;29.50;;;12.33;;
18917;SDS011;9591;52.742;13.650;2023-03-19T06:38:16;27.70;;;12.20;;
18917;SDS011;9591;52.742;13.650;2023-03-19T06:41:03;19.70;;;11.10;;
18917;SDS011;9591;52.742;13.650;2023-03-19T06:43:50;19.87;;;9.97;;
18917;SDS011;9591;52.742;13.650;2023-03-19T06:46:37;25.83;;;9.67;;
18917;SDS011;9591;52.742;13.650;2023-03-19T06:49:24;18.73;;;10.97;;
18917;SDS011;9591;52.742;13.650;2023-03-19T06:52:11;21.60;;;10.87;;
18917;SDS011;9591;52.742;13.650;2023-03-19T06:54:59;22.30;;;11.63;;
18917;SDS011;9591;52.742;13.650;2023-03-19T06:57:47;18.63;;;10.33;;
18917;SDS011;9591;52.742;13.650;2023-03-19T07:00:34;24.07;;;10.87;;
18917;SDS011;9591;52.742;13.650;2023-03-19T07:03:21;21.20;;;10.83;;
18917;SDS011;9591;52.742;13.650;2023-03-19T07:06:08;18.67;;;9.57;;
18917;SDS011;9591;52.742;13.650;2023-03-19T07:08:56;21.27;;;11.37;;
18917;SDS011;9591;52.742;13.650;2023-03-19T07:11:45;25.07;;;11.50;;
18917;SDS011;9591;52.742;13.650;2023-03-19T07:14:32;21.77;;;9.70;;
18917;SDS011;9591;52.742;13.650;2023-03-19T07:17:19;19.87;;;9.47;;
18917;SDS011;9591;52.742;13.650;2023-03-19T07:20:06;18.00;;;10.00;;
18917;SDS011;9591;52.742;13.650;2023-03-19T07:22:53;21.43;;;11.63;;
18917;SDS011;9591;52.742;13.650;2023-03-19T07:25:40;17.07;;;10.57;;
18917;SDS011;9591;52.742;13.650;2023-03-19T07:28:28;20.57;;;11.43;;
18917;SDS011;9591;52.742;13.650;2023-03-19T07:31:15;21.07;;;10.67;;
18917;SDS011;9591;52.742;13.650;2023-03-19T07:34:02;24.33;;;10.70;;
18917;SDS011;9591;52.742;13.650;2023-03-19T07:36:49;22.93;;;10.87;;
18917;SDS011;9591;52.742;13.650;2023-03-19T07:39:37;22.60;;;11.53;;
18917;SDS011;9591;52.742;13.650;2023-03-19T07:42:23;20.90;;;11.53;;
18917;SDS011;9591;52.742;13.650;2023-03-19T07:45:12;23.57;;;11.97;;
18917;SDS011;9591;52.742;13.650;2023-03-19T07:47:59;22.23;;;11.07;;
18917;SDS011;9591;52.742;13.650;2023-03-19T07:50:48;22.43;;;11.53;;
18917;SDS011;9591;52.742;13.650;2023-03-19T07:53:35;17.40;;;10.27;;
18917;SDS011;9591;52.742;13.650;2023-03-19T07:56:22;18.50;;;10.20;;
18917;SDS011;9591;52.742;13.650;2023-03-19T07:59:08;23.50;;;10.73;;
18917;SDS011;9591;52.742;13.650;2023-03-19T08:01:56;21.13;;;9.77;;
18917;SDS011;9591;52.742;13.650;2023-03-19T08:04:43;20.47;;;10.47;;
18917;SDS011;9591;52.742;13.650;2023-03-19T08:07:30;20.73;;;10.70;;
18917;SDS011;9591;52.742;13.650;2023-03-19T08:10:17;27.03;;;11.47;;
18917;SDS011;9591;52.742;13.650;2023-03-19T08:13:04;22.27;;;11.27;;
18917;SDS011;9591;52.742;13.650;2023-03-19T08:15:51;22.30;;;10.47;;
18917;SDS011;9591;52.742;13.650;2023-03-19T08:18:40;21.87;;;10.40;;
18917;SDS011;9591;52.742;13.650;2023-03-19T08:21:26;30.77;;;15.10;;
18917;SDS011;9591;52.742;13.650;2023-03-19T08:24:13;18.53;;;10.37;;
18917;SDS011;9591;52.742;13.650;2023-03-19T08:27:00;25.67;;;11.47;;
18917;SDS011;9591;52.742;13.650;2023-03-19T08:29:47;16.03;;;8.17;;
18917;SDS011;9591;52.742;13.650;2023-03-19T08:32:35;13.83;;;8.40;;
18917;SDS011;9591;52.742;13.650;2023-03-19T08:35:23;15.53;;;8.20;;
18917;SDS011;9591;52.742;13.650;2023-03-19T08:38:11;14.10;;;7.97;;
18917;SDS011;9591;52.742;13.650;2023-03-19T08:40:58;14.13;;;7.33;;
18917;SDS011;9591;52.742;13.650;2023-03-19T08:43:46;18.90;;;10.43;;
18917;SDS011;9591;52.742;13.650;2023-03-19T08:46:33;17.37;;;9.47;;
18917;SDS011;9591;52.742;13.650;2023-03-19T08:49:20;19.50;;;8.17;;
18917;SDS011;9591;52.742;13.650;2023-03-19T08:52:08;14.93;;;8.10;;
18917;SDS011;9591;52.742;13.650;2023-03-19T08:54:55;14.43;;;7.47;;
18917;SDS011;9591;52.742;13.650;2023-03-19T08:57:44;13.97;;;7.13;;
18917;SDS011;9591;52.742;13.650;2023-03-19T09:00:30;12.20;;;7.50;;
18917;SDS011;9591;52.742;13.650;2023-03-19T09:03:17;13.37;;;7.63;;
18917;SDS011;9591;52.742;13.650;2023-03-19T09:06:06;14.53;;;8.00;;
18917;SDS011;9591;52.742;13.650;2023-03-19T09:08:56;13.60;;;8.17;;
18917;SDS011;9591;52.742;13.650;2023-03-19T09:11:42;14.77;;;8.27;;
18917;SDS011;9591;52.742;13.650;2023-03-19T09:14:30;14.57;;;8.50;;
18917;SDS011;9591;52.742;13.650;2023-03-19T09:17:17;19.13;;;9.10;;
18917;SDS011;9591;52.742;13.650;2023-03-19T09:20:04;13.10;;;7.23;;
18917;SDS011;9591;52.742;13.650;2023-03-19T09:22:51;14.17;;;7.83;;
18917;SDS011;9591;52.742;13.650;2023-03-19T09:25:39;15.93;;;8.00;;
18917;SDS011;9591;52.742;13.650;2023-03-19T09:28:26;14.93;;;7.73;;
18917;SDS011;9591;52.742;13.650;2023-03-19T09:31:13;15.33;;;7.67;;
18917;SDS011;9591;52.742;13.650;2023-03-19T09:34:00;16.20;;;8.20;;
18917;SDS011;9591;52.742;13.650;2023-03-19T09:36:47;14.27;;;8.30;;
18917;SDS011;9591;52.742;13.650;2023-03-19T09:39:33;13.03;;;7.90;;
18917;SDS011;9591;52.742;13.650;2023-03-19T09:42:26;15.37;;;8.03;;
18917;SDS011;9591;52.742;13.650;2023-03-19T09:45:29;12.10;;;7.50;;
18917;SDS011;9591;52.742;13.650;2023-03-19T09:48:18;16.57;;;7.97;;
18917;SDS011;9591;52.742;13.650;2023-03-19T09:51:14;14.97;;;8.37;;
18917;SDS011;9591;52.742;13.650;2023-03-19T09:54:07;17.50;;;9.10;;
18917;SDS011;9591;52.742;13.650;2023-03-19T09:57:06;18.53;;;9.90;;
18917;SDS011;9591;52.742;13.650;2023-03-19T09:59:59;18.97;;;9.13;;
18917;SDS011;9591;52.742;13.650;2023-03-19T10:02:50;13.43;;;8.67;;
18917;SDS011;9591;52.742;13.650;2023-03-19T10:05:44;16.73;;;8.20;;
18917;SDS011;9591;52.742;13.650;2023-03-19T10:08:40;13.27;;;7.93;;
18917;SDS011;9591;52.742;13.650;2023-03-19T10:11:40;14.90;;;8.60;;
18917;SDS011;9591;52.742;13.650;2023-03-19T10:14:47;18.53;;;9.47;;
18917;SDS011;9591;52.742;13.650;2023-03-19T10:17:48;16.67;;;9.30;;
18917;SDS011;9591;52.742;13.650;2023-03-19T10:20:46;18.87;;;10.03;;
18917;SDS011;9591;52.742;13.650;2023-03-19T10:23:37;16.73;;;9.63;;
18917;SDS011;9591;52.742;13.650;2023-03-19T10:26:28;16.77;;;9.60;;
18917;SDS011;9591;52.742;13.650;2023-03-19T10:29:17;19.20;;;10.10;;
18917;SDS011;9591;52.742;13.650;2023-03-19T10:32:06;17.43;;;9.70;;
18917;SDS011;9591;52.742;13.650;2023-03-19T10:35:05;16.10;;;8.37;;
18917;SDS011;9591;52.742;13.650;2023-03-19T10:37:58;16.90;;;9.43;;
18917;SDS011;9591;52.742;13.650;2023-03-19T10:41:03;15.80;;;9.50;;
18917;SDS011;9591;52.742;13.650;2023-03-19T10:44:05;13.93;;;8.83;;
18917;SDS011;9591;52.742;13.650;2023-03-19T10:46:58;17.70;;;8.83;;
18917;SDS011;9591;52.742;13.650;2023-03-19T10:49:54;15.83;;;8.70;;
18917;SDS011;9591;52.742;13.650;2023-03-19T10:52:43;12.00;;;7.77;;
18917;SDS011;9591;52.742;13.650;2023-03-19T10:55:35;16.00;;;8.70;;
18917;SDS011;9591;52.742;13.650;2023-03-19T10:58:24;13.83;;;7.87;;
18917;SDS011;9591;52.742;13.650;2023-03-19T11:01:12;13.67;;;8.07;;
18917;SDS011;9591;52.742;13.650;2023-03-19T11:04:01;12.97;;;7.00;;
18917;SDS011;9591;52.742;13.650;2023-03-19T11:07:01;10.20;;;6.50;;
18917;SDS011;9591;52.742;13.650;2023-03-19T11:09:53;10.10;;;6.77;;
18917;SDS011;9591;52.742;13.650;2023-03-19T11:12:41;12.70;;;6.63;;
18917;SDS011;9591;52.742;13.650;2023-03-19T11:15:34;11.53;;;7.47;;
18917;SDS011;9591;52.742;13.650;2023-03-19T11:18:23;8.23;;;5.93;;
18917;SDS011;9591;52.742;13.650;2023-03-19T11:21:20;8.17;;;5.80;;
18917;SDS011;9591;52.742;13.650;2023-03-19T11:24:10;9.07;;;5.73;;
18917;SDS011;9591;52.742;13.650;2023-03-19T11:26:59;8.80;;;5.70;;
18917;SDS011;9591;52.742;13.650;2023-03-19T11:29:47;10.30;;;5.20;;
18917;SDS011;9591;52.742;13.650;2023-03-19T11:32:41;8.67;;;5.67;;
18917;SDS011;9591;52.742;13.650;2023-03-19T11:35:47;9.63;;;5.20;;
18917;SDS011;9591;52.742;13.650;2023-03-19T11:38:44;9.13;;;5.90;;
18917;SDS011;9591;52.742;13.650;2023-03-19T11:41:48;7.13;;;4.73;;
18917;SDS011;9591;52.742;13.650;2023-03-19T11:44:44;7.03;;;4.20;;
18917;SDS011;9591;52.742;13.650;2023-03-19T11:47:43;6.73;;;4.00;;
18917;SDS011;9591;52.742;13.650;2023-03-19T11:50:39;5.13;;;4.27;;
18917;SDS011;9591;52.742;13.650;2023-03-19T11:53:34;5.67;;;3.87;;
18917;SDS011;9591;52.742;13.650;2023-03-19T11:56:27;6.97;;;4.60;;
18917;SDS011;9591;52.742;13.650;2023-03-19T11:59:23;4.83;;;4.13;;
18917;SDS011;9591;52.742;13.650;2023-03-19T12:05:30;6.40;;;4.00;;
18917;SDS011;9591;52.742;13.650;2023-03-19T12:08:22;6.53;;;4.07;;
18917;SDS011;9591;52.742;13.650;2023-03-19T12:11:20;5.60;;;4.00;;
18917;SDS011;9591;52.742;13.650;2023-03-19T12:14:15;8.60;;;4.70;;
18917;SDS011;9591;52.742;13.650;2023-03-19T12:17:15;7.20;;;4.30;;
18917;SDS011;9591;52.742;13.650;2023-03-19T12:20:20;4.87;;;3.83;;
18917;SDS011;9591;52.742;13.650;2023-03-19T12:23:18;5.57;;;4.93;;
18917;SDS011;9591;52.742;13.650;2023-03-19T12:26:16;9.63;;;5.20;;
18917;SDS011;9591;52.742;13.650;2023-03-19T12:29:13;7.93;;;5.40;;
18917;SDS011;9591;52.742;13.650;2023-03-19T12:32:13;8.47;;;5.30;;
18917;SDS011;9591;52.742;13.650;2023-03-19T12:35:08;9.47;;;5.33;;
18917;SDS011;9591;52.742;13.650;2023-03-19T12:38:01;10.53;;;6.07;;
18917;SDS011;9591;52.742;13.650;2023-03-19T12:40:55;8.90;;;5.73;;
18917;SDS011;9591;52.742;13.650;2023-03-19T12:43:48;9.17;;;5.40;;
18917;SDS011;9591;52.742;13.650;2023-03-19T12:46:42;10.53;;;4.93;;
18917;SDS011;9591;52.742;13.650;2023-03-19T12:49:35;11.50;;;5.77;;
18917;SDS011;9591;52.742;13.650;2023-03-19T12:52:28;10.87;;;5.73;;
18917;SDS011;9591;52.742;13.650;2023-03-19T12:55:21;9.70;;;5.90;;
18917;SDS011;9591;52.742;13.650;2023-03-19T12:58:13;11.23;;;5.50;;
18917;SDS011;9591;52.742;13.650;2023-03-19T13:01:08;9.83;;;5.67;;
18917;SDS011;9591;52.742;13.650;2023-03-19T13:04:00;11.67;;;6.93;;
18917;SDS011;9591;52.742;13.650;2023-03-19T13:06:54;8.17;;;5.70;;
18917;SDS011;9591;52.742;13.650;2023-03-19T13:09:46;9.33;;;5.80;;
18917;SDS011;9591;52.742;13.650;2023-03-19T13:12:38;8.27;;;5.93;;
18917;SDS011;9591;52.742;13.650;2023-03-19T13:15:26;10.70;;;5.77;;
18917;SDS011;9591;52.742;13.650;2023-03-19T13:18:20;15.13;;;6.60;;
18917;SDS011;9591;52.742;13.650;2023-03-19T13:21:20;12.10;;;6.20;;
18917;SDS011;9591;52.742;13.650;2023-03-19T13:24:13;10.53;;;6.27;;
18917;SDS011;9591;52.742;13.650;2023-03-19T13:27:05;8.83;;;5.90;;
18917;SDS011;9591;52.742;13.650;2023-03-19T13:30:05;12.80;;;6.90;;
18917;SDS011;9591;52.742;13.650;2023-03-19T13:33:02;11.07;;;6.07;;
18917;SDS011;9591;52.742;13.650;2023-03-19T13:35:50;9.00;;;5.90;;
18917;SDS011;9591;52.742;13.650;2023-03-19T13:38:38;10.00;;;5.83;;
18917;SDS011;9591;52.742;13.650;2023-03-19T13:44:40;9.67;;;5.93;;
18917;SDS011;9591;52.742;13.650;2023-03-19T13:47:40;8.60;;;5.70;;
18917;SDS011;9591;52.742;13.650;2023-03-19T13:50:28;10.17;;;5.60;;
18917;SDS011;9591;52.742;13.650;2023-03-19T13:53:20;11.27;;;5.97;;
18917;SDS011;9591;52.742;13.650;2023-03-19T13:56:21;11.83;;;5.90;;
18917;SDS011;9591;52.742;13.650;2023-03-19T13:59:20;9.10;;;5.80;;
18917;SDS011;9591;52.742;13.650;2023-03-19T14:05:35;12.67;;;6.53;;
18917;SDS011;9591;52.742;13.650;2023-03-19T14:08:22;10.70;;;6.80;;
18917;SDS011;9591;52.742;13.650;2023-03-19T14:11:16;11.70;;;6.17;;
18917;SDS011;9591;52.742;13.650;2023-03-19T14:14:11;11.13;;;6.13;;
18917;SDS011;9591;52.742;13.650;2023-03-19T14:17:00;11.77;;;6.03;;
18917;SDS011;9591;52.742;13.650;2023-03-19T14:19:49;9.53;;;6.03;;
18917;SDS011;9591;52.742;13.650;2023-03-19T14:22:40;11.07;;;6.07;;
18917;SDS011;9591;52.742;13.650;2023-03-19T14:26:01;10.53;;;6.63;;
18917;SDS011;9591;52.742;13.650;2023-03-19T14:28:55;13.57;;;7.13;;
18917;SDS011;9591;52.742;13.650;2023-03-19T14:31:46;9.80;;;6.60;;
18917;SDS011;9591;52.742;13.650;2023-03-19T14:34:35;11.67;;;6.90;;
18917;SDS011;9591;52.742;13.650;2023-03-19T14:37:28;13.17;;;7.27;;
18917;SDS011;9591;52.742;13.650;2023-03-19T14:40:31;12.13;;;6.40;;
18917;SDS011;9591;52.742;13.650;2023-03-19T14:43:31;8.97;;;5.93;;
18917;SDS011;9591;52.742;13.650;2023-03-19T14:46:41;13.60;;;6.33;;
18917;SDS011;9591;52.742;13.650;2023-03-19T14:49:49;10.80;;;6.40;;
18917;SDS011;9591;52.742;13.650;2023-03-19T14:52:57;12.67;;;6.63;;
18917;SDS011;9591;52.742;13.650;2023-03-19T14:55:48;11.53;;;6.63;;
18917;SDS011;9591;52.742;13.650;2023-03-19T14:58:36;11.03;;;7.00;;
18917;SDS011;9591;52.742;13.650;2023-03-19T15:01:23;10.37;;;6.17;;
18917;SDS011;9591;52.742;13.650;2023-03-19T15:04:12;9.43;;;6.90;;
18917;SDS011;9591;52.742;13.650;2023-03-19T15:07:01;12.37;;;6.90;;
18917;SDS011;9591;52.742;13.650;2023-03-19T15:09:51;13.87;;;6.63;;
18917;SDS011;9591;52.742;13.650;2023-03-19T15:16:11;10.20;;;6.57;;
18917;SDS011;9591;52.742;13.650;2023-03-19T15:19:07;13.07;;;8.00;;
18917;SDS011;9591;52.742;13.650;2023-03-19T15:22:02;12.23;;;6.70;;
18917;SDS011;9591;52.742;13.650;2023-03-19T15:24:51;14.93;;;6.97;;
18917;SDS011;9591;52.742;13.650;2023-03-19T15:27:38;10.50;;;6.17;;
18917;SDS011;9591;52.742;13.650;2023-03-19T15:30:25;8.90;;;5.93;;
18917;SDS011;9591;52.742;13.650;2023-03-19T15:33:17;8.73;;;5.70;;
18917;SDS011;9591;52.742;13.650;2023-03-19T15:36:24;14.60;;;6.83;;
18917;SDS011;9591;52.742;13.650;2023-03-19T15:39:14;14.00;;;6.93;;
18917;SDS011;9591;52.742;13.650;2023-03-19T15:42:05;9.03;;;5.63;;
18917;SDS011;9591;52.742;13.650;2023-03-19T15:44:53;11.17;;;5.73;;
18917;SDS011;9591;52.742;13.650;2023-03-19T15:47:44;9.63;;;6.13;;
18917;SDS011;9591;52.742;13.650;2023-03-19T15:50:34;11.97;;;6.20;;
18917;SDS011;9591;52.742;13.650;2023-03-19T15:53:25;11.83;;;6.10;;
18917;SDS011;9591;52.742;13.650;2023-03-19T15:56:16;8.83;;;5.77;;
18917;SDS011;9591;52.742;13.650;2023-03-19T15:59:06;10.60;;;5.90;;
18917;SDS011;9591;52.742;13.650;2023-03-19T16:01:55;12.83;;;6.57;;
18917;SDS011;9591;52.742;13.650;2023-03-19T16:04:43;11.97;;;5.97;;
18917;SDS011;9591;52.742;13.650;2023-03-19T16:07:52;10.00;;;6.63;;
18917;SDS011;9591;52.742;13.650;2023-03-19T16:10:41;10.30;;;6.37;;
18917;SDS011;9591;52.742;13.650;2023-03-19T16:13:30;8.97;;;6.00;;
18917;SDS011;9591;52.742;13.650;2023-03-19T16:16:26;13.40;;;6.23;;
18917;SDS011;9591;52.742;13.650;2023-03-19T16:19:28;11.03;;;6.37;;
18917;SDS011;9591;52.742;13.650;2023-03-19T16:22:18;12.67;;;6.40;;
18917;SDS011;9591;52.742;13.650;2023-03-19T16:25:07;10.47;;;6.60;;
18917;SDS011;9591;52.742;13.650;2023-03-19T16:28:04;10.93;;;6.57;;
18917;SDS011;9591;52.742;13.650;2023-03-19T16:30:51;10.83;;;6.50;;
18917;SDS011;9591;52.742;13.650;2023-03-19T16:33:39;16.87;;;6.67;;
18917;SDS011;9591;52.742;13.650;2023-03-19T16:36:27;10.33;;;6.27;;
18917;SDS011;9591;52.742;13.650;2023-03-19T16:39:30;10.10;;;6.20;;
18917;SDS011;9591;52.742;13.650;2023-03-19T16:42:29;10.37;;;6.23;;
18917;SDS011;9591;52.742;13.650;2023-03-19T16:45:24;10.17;;;6.73;;
18917;SDS011;9591;52.742;13.650;2023-03-19T16:48:13;10.40;;;6.03;;
18917;SDS011;9591;52.742;13.650;2023-03-19T16:51:01;12.13;;;6.70;;
18917;SDS011;9591;52.742;13.650;2023-03-19T16:53:48;11.40;;;6.27;;
18917;SDS011;9591;52.742;13.650;2023-03-19T16:56:35;11.27;;;6.73;;
18917;SDS011;9591;52.742;13.650;2023-03-19T16:59:25;10.97;;;6.90;;
18917;SDS011;9591;52.742;13.650;2023-03-19T17:02:15;16.30;;;6.97;;
18917;SDS011;9591;52.742;13.650;2023-03-19T17:05:04;12.10;;;7.10;;
18917;SDS011;9591;52.742;13.650;2023-03-19T17:07:59;15.87;;;7.60;;
18917;SDS011;9591;52.742;13.650;2023-03-19T17:10:46;13.60;;;7.80;;
18917;SDS011;9591;52.742;13.650;2023-03-19T17:13:35;13.93;;;8.23;;